Time;durP1;ratioP1;P1;durP2;ratioP2;P2;SDS_P1;SDS_P2;PMS_P1;PMS_P2;Temp;Humidity;BMP_temperature;BMP_pressure;BME280_temperature;BME280_humidity;BME280_pressure;Samples;Min_cycle;Max_cycle;Signal;HPM_P1;HPM_P2
2023/09/25 00:02:01;;;;;;;;;;;19.40;98.60;;;;;;5090867;28;20001;-69
2023/09/25 00:04:28;;;;;;;;;;;19.60;98.00;;;;;;5089926;28;19946;-70
2023/09/25 00:06:55;;;;;;;;;;;19.70;97.60;;;;;;5088874;28;19947;-64
2023/09/25 00:09:23;;;;;;;;;;;19.70;97.40;;;;;;5076826;28;19957;-69
2023/09/25 00:11:49;;;;;;;;;;;19.90;97.50;;;;;;5091081;28;19912;-70
2023/09/25 00:14:16;;;;;;;;;;;20.00;96.90;;;;;;5091176;28;19934;-70
2023/09/25 00:16:42;;;;;;;;;;;20.10;96.40;;;;;;5089126;28;19916;-72
2023/09/25 00:19:09;;;;;;;;;;;20.10;96.30;;;;;;5081440;28;20384;-68
2023/09/25 00:21:36;;;;;;;;;;;20.20;96.10;;;;;;5089729;28;20388;-65
2023/09/25 00:24:03;;;;;;;;;;;20.30;95.70;;;;;;5082943;28;19920;-66
2023/09/25 00:26:30;;;;;;;;;;;20.40;94.90;;;;;;5080169;28;20268;-65
2023/09/25 00:28:56;;;;;;;;;;;20.50;94.80;;;;;;5084615;28;19912;-71
2023/09/25 00:31:23;;;;;;;;;;;20.60;94.70;;;;;;5091113;28;19909;-70
2023/09/25 00:33:50;;;;;;;;;;;20.80;94.00;;;;;;5091421;28;19912;-69
2023/09/25 00:36:17;;;;;;;;;;;20.90;93.50;;;;;;5089398;28;19912;-69
2023/09/25 00:38:44;;;;;;;;;;;21.00;92.90;;;;;;5085731;28;19974;-68
2023/09/25 00:41:11;;;;;;;;;;;21.10;92.80;;;;;;5093611;28;20002;-72
2023/09/25 00:43:38;;;;;;;;;;;21.30;92.50;;;;;;5093008;28;19927;-70
2023/09/25 00:46:04;;;;;;;;;;;21.30;92.60;;;;;;5092273;28;19923;-69
2023/09/25 00:48:32;;;;;;;;;;;21.50;92.40;;;;;;5094685;28;19920;-71
2023/09/25 00:51:00;;;;;;;;;;;21.70;91.70;;;;;;5094493;28;19909;-73
2023/09/25 00:53:29;;;;;;;;;;;21.80;91.80;;;;;;5096617;28;19917;-70
2023/09/25 00:55:56;;;;;;;;;;;21.90;91.20;;;;;;5092214;28;19912;-71
2023/09/25 00:58:26;;;;;;;;;;;22.20;90.60;;;;;;5093276;28;19912;-69
2023/09/25 01:00:53;;;;;;;;;;;22.20;90.60;;;;;;5094387;28;20056;-70
2023/09/25 01:03:19;;;;;;;;;;;22.40;89.90;;;;;;5094458;28;19920;-68
2023/09/25 01:05:46;;;;;;;;;;;22.40;89.30;;;;;;5094207;28;19909;-70
2023/09/25 01:08:13;;;;;;;;;;;22.50;90.10;;;;;;5093213;28;19934;-72
2023/09/25 01:10:44;;;;;;;;;;;22.80;89.70;;;;;;5089716;28;19916;-70
2023/09/25 01:13:11;;;;;;;;;;;22.90;88.70;;;;;;5094922;28;19919;-72
2023/09/25 01:15:38;;;;;;;;;;;22.90;86.30;;;;;;5094326;28;19916;-70
2023/09/25 01:18:05;;;;;;;;;;;23.00;87.90;;;;;;5094635;28;19913;-72
2023/09/25 01:20:32;;;;;;;;;;;23.20;86.60;;;;;;5093471;28;19947;-73
2023/09/25 01:22:58;;;;;;;;;;;23.40;87.70;;;;;;5093400;28;20383;-72
2023/09/25 01:25:25;;;;;;;;;;;23.70;85.80;;;;;;5093938;28;20379;-74
2023/09/25 01:27:52;;;;;;;;;;;23.80;86.00;;;;;;5093891;28;19919;-70
2023/09/25 01:30:19;;;;;;;;;;;24.00;83.80;;;;;;5093599;28;19908;-70
2023/09/25 01:32:46;;;;;;;;;;;24.20;84.70;;;;;;5086132;28;20010;-70
2023/09/25 01:35:18;;;;;;;;;;;24.50;84.00;;;;;;5094120;28;19908;-74
2023/09/25 01:37:45;;;;;;;;;;;24.80;85.80;;;;;;5094111;28;19913;-72
2023/09/25 01:40:18;;;;;;;;;;;25.00;87.90;;;;;;5080766;28;19908;-73
2023/09/25 01:42:45;;;;;;;;;;;25.10;86.50;;;;;;5080506;28;19966;-70
2023/09/25 01:45:13;;;;;;;;;;;25.30;87.60;;;;;;5080829;28;19912;-69
2023/09/25 01:47:41;;;;;;;;;;;25.40;85.20;;;;;;5088843;28;20308;-71
2023/09/25 01:50:10;;;;;;;;;;;25.50;85.90;;;;;;5092268;28;20359;-68
2023/09/25 01:52:36;;;;;;;;;;;25.80;87.00;;;;;;5092355;28;20265;-73
2023/09/25 01:55:06;;;;;;;;;;;25.90;86.80;;;;;;5091379;28;19912;-67
2023/09/25 01:57:34;;;;;;;;;;;25.90;85.50;;;;;;5088780;28;19912;-69
2023/09/25 02:00:00;;;;;;;;;;;26.00;87.30;;;;;;5093959;28;20372;-68
2023/09/25 02:02:27;;;;;;;;;;;26.30;86.70;;;;;;5093318;28;19916;-67
2023/09/25 02:04:54;;;;;;;;;;;26.60;83.90;;;;;;5092211;28;19916;-68
2023/09/25 02:07:21;;;;;;;;;;;26.00;85.00;;;;;;5093050;28;20392;-67
2023/09/25 02:09:48;;;;;;;;;;;25.90;85.50;;;;;;5092871;28;19908;-65
2023/09/25 02:12:15;;;;;;;;;;;25.90;86.10;;;;;;5093279;28;20273;-69
2023/09/25 02:14:41;;;;;;;;;;;25.80;85.40;;;;;;5092691;28;19919;-71
2023/09/25 02:17:08;;;;;;;;;;;25.90;86.10;;;;;;5093332;28;19920;-67
2023/09/25 02:19:36;;;;;;;;;;;26.00;84.70;;;;;;5092830;28;19916;-66
2023/09/25 02:22:06;;;;;;;;;;;26.10;84.60;;;;;;5092882;28;19912;-65
2023/09/25 02:24:37;;;;;;;;;;;26.30;88.40;;;;;;5092409;28;19956;-68
2023/09/25 02:27:03;;;;;;;;;;;26.60;85.00;;;;;;5086759;28;19969;-66
2023/09/25 02:29:30;;;;;;;;;;;26.60;83.90;;;;;;5091950;28;19905;-66
2023/09/25 02:31:57;;;;;;;;;;;27.00;84.90;;;;;;5092395;28;19947;-67
2023/09/25 02:34:23;;;;;;;;;;;27.10;83.90;;;;;;5092777;28;19909;-65
2023/09/25 02:36:50;;;;;;;;;;;27.50;82.90;;;;;;5092526;28;19915;-68
2023/09/25 02:39:16;;;;;;;;;;;28.00;82.50;;;;;;5086814;28;19916;-67
2023/09/25 02:41:43;;;;;;;;;;;28.90;81.10;;;;;;5086231;28;19908;-69
2023/09/25 02:44:10;;;;;;;;;;;29.00;79.50;;;;;;5092303;28;19916;-68
2023/09/25 02:46:37;;;;;;;;;;;29.70;77.90;;;;;;5104873;28;19916;-69
2023/09/25 02:49:04;;;;;;;;;;;30.40;75.40;;;;;;5088062;28;20073;-70
2023/09/25 02:51:31;;;;;;;;;;;31.10;73.00;;;;;;5092581;28;19908;-70
2023/09/25 02:53:58;;;;;;;;;;;32.20;72.40;;;;;;5091764;28;20327;-65
2023/09/25 02:56:24;;;;;;;;;;;33.10;71.40;;;;;;5086651;28;19980;-68
2023/09/25 02:58:51;;;;;;;;;;;33.30;70.60;;;;;;5088240;28;20327;-68
2023/09/25 03:01:17;;;;;;;;;;;34.10;67.60;;;;;;5092131;28;19961;-67
2023/09/25 03:03:44;;;;;;;;;;;35.00;65.40;;;;;;5089666;28;20385;-70
2023/09/25 03:06:11;;;;;;;;;;;35.60;64.20;;;;;;5088018;28;19920;-68
2023/09/25 03:08:37;;;;;;;;;;;36.50;62.60;;;;;;5086373;28;19920;-66
2023/09/25 03:11:04;;;;;;;;;;;35.80;61.50;;;;;;5088410;28;19920;-66
2023/09/25 03:13:31;;;;;;;;;;;34.10;64.20;;;;;;5086330;28;19912;-71
2023/09/25 03:15:59;;;;;;;;;;;34.20;64.50;;;;;;5090527;28;19908;-69
2023/09/25 03:18:25;;;;;;;;;;;35.80;63.90;;;;;;5084700;28;19912;-70
2023/09/25 03:20:52;;;;;;;;;;;37.50;62.60;;;;;;5092403;28;19967;-71
2023/09/25 03:23:18;;;;;;;;;;;38.00;59.80;;;;;;5086459;28;19970;-68
2023/09/25 03:25:45;;;;;;;;;;;38.80;58.40;;;;;;5080134;28;19917;-71
2023/09/25 03:28:12;;;;;;;;;;;38.30;57.60;;;;;;5082588;28;19916;-70
2023/09/25 03:30:38;;;;;;;;;;;37.50;57.60;;;;;;5091781;28;19997;-65
2023/09/25 03:33:05;;;;;;;;;;;37.10;58.80;;;;;;5087973;28;19962;-71
2023/09/25 03:35:32;;;;;;;;;;;37.00;58.30;;;;;;5091438;28;19908;-69
2023/09/25 03:37:58;;;;;;;;;;;37.10;57.80;;;;;;5089634;28;20529;-68
2023/09/25 03:40:25;;;;;;;;;;;36.90;57.30;;;;;;5091346;28;19991;-69
2023/09/25 03:42:51;;;;;;;;;;;36.50;58.30;;;;;;5086495;28;21281;-68
2023/09/25 03:45:18;;;;;;;;;;;37.60;57.30;;;;;;5092241;28;19909;-66
2023/09/25 03:47:45;;;;;;;;;;;37.50;56.10;;;;;;5080303;28;19961;-66
2023/09/25 03:50:12;;;;;;;;;;;38.00;56.20;;;;;;5084464;28;19917;-70
2023/09/25 03:52:38;;;;;;;;;;;38.20;55.50;;;;;;5090280;28;19962;-72
2023/09/25 03:55:05;;;;;;;;;;;38.20;56.30;;;;;;5091610;28;20017;-71
2023/09/25 03:57:32;;;;;;;;;;;37.80;55.20;;;;;;5078788;28;19924;-69
2023/09/25 03:59:58;;;;;;;;;;;36.90;56.50;;;;;;5081159;28;19908;-68
2023/09/25 04:02:25;;;;;;;;;;;37.80;55.80;;;;;;5089869;28;19969;-68
2023/09/25 04:04:51;;;;;;;;;;;37.60;57.20;;;;;;5092022;28;19919;-68
2023/09/25 04:07:18;;;;;;;;;;;37.70;56.40;;;;;;5078919;28;20403;-67
2023/09/25 04:09:45;;;;;;;;;;;38.60;55.70;;;;;;5084935;28;19924;-67
2023/09/25 04:12:11;;;;;;;;;;;38.90;54.70;;;;;;5087976;28;19916;-69
2023/09/25 04:14:39;;;;;;;;;;;39.50;54.40;;;;;;5093592;28;20365;-67
2023/09/25 04:17:08;;;;;;;;;;;38.70;55.60;;;;;;5088486;28;20297;-68
2023/09/25 04:19:34;;;;;;;;;;;38.20;54.80;;;;;;5094406;28;19916;-67
2023/09/25 04:22:06;;;;;;;;;;;39.00;54.80;;;;;;5088909;28;20407;-70
2023/09/25 04:24:37;;;;;;;;;;;38.30;54.60;;;;;;5095446;28;19920;-66
2023/09/25 04:27:04;;;;;;;;;;;38.80;55.90;;;;;;5087990;28;19912;-68
2023/09/25 04:29:31;;;;;;;;;;;39.30;54.70;;;;;;5083075;28;19919;-67
2023/09/25 04:31:57;;;;;;;;;;;38.80;54.70;;;;;;5093951;28;19923;-67
2023/09/25 04:34:24;;;;;;;;;;;38.50;54.30;;;;;;5094074;28;19977;-66
2023/09/25 04:36:52;;;;;;;;;;;38.60;53.90;;;;;;5090602;28;20303;-67
2023/09/25 04:39:20;;;;;;;;;;;36.80;56.10;;;;;;5094122;28;19919;-66
2023/09/25 04:41:47;;;;;;;;;;;37.20;56.20;;;;;;5092566;28;19919;-67
2023/09/25 04:44:14;;;;;;;;;;;37.30;56.20;;;;;;5093900;28;19920;-67
2023/09/25 04:46:40;;;;;;;;;;;36.90;56.20;;;;;;5093180;28;19916;-67
2023/09/25 04:49:08;;;;;;;;;;;36.00;57.10;;;;;;5094231;28;19926;-64
2023/09/25 04:51:35;;;;;;;;;;;36.90;56.60;;;;;;5093849;28;19995;-69
2023/09/25 04:54:02;;;;;;;;;;;36.20;57.00;;;;;;5093935;28;20376;-67
2023/09/25 04:56:29;;;;;;;;;;;36.90;57.40;;;;;;5091155;28;19915;-66
2023/09/25 04:58:57;;;;;;;;;;;37.90;56.20;;;;;;5092089;28;19912;-68
2023/09/25 05:01:24;;;;;;;;;;;37.50;57.10;;;;;;5091658;28;19961;-67
2023/09/25 05:03:50;;;;;;;;;;;38.00;56.10;;;;;;5091092;28;20010;-69
2023/09/25 05:06:17;;;;;;;;;;;38.10;55.60;;;;;;5091060;28;20399;-68
2023/09/25 05:08:44;;;;;;;;;;;36.20;57.10;;;;;;5093324;28;19912;-67
2023/09/25 05:11:11;;;;;;;;;;;36.60;56.60;;;;;;5090245;28;19920;-66
2023/09/25 05:13:37;;;;;;;;;;;37.20;56.40;;;;;;5093356;28;19996;-67
2023/09/25 05:16:04;;;;;;;;;;;36.80;56.00;;;;;;5090779;28;20277;-67
2023/09/25 05:18:31;;;;;;;;;;;36.60;56.70;;;;;;5095824;28;19978;-67
2023/09/25 05:20:58;;;;;;;;;;;37.80;56.30;;;;;;5094067;28;20391;-67
2023/09/25 05:23:25;;;;;;;;;;;38.00;56.30;;;;;;5092175;28;20327;-66
2023/09/25 05:25:52;;;;;;;;;;;38.80;55.30;;;;;;5092781;28;19961;-64
2023/09/25 05:28:18;;;;;;;;;;;38.80;54.30;;;;;;5092579;28;19912;-66
2023/09/25 05:30:45;;;;;;;;;;;39.20;55.10;;;;;;5092404;28;19931;-69
2023/09/25 05:33:13;;;;;;;;;;;38.40;55.40;;;;;;5094361;28;19920;-67
2023/09/25 05:35:40;;;;;;;;;;;39.00;55.60;;;;;;5093437;28;19909;-67
2023/09/25 05:38:06;;;;;;;;;;;39.80;54.20;;;;;;5089742;28;19912;-66
2023/09/25 05:40:34;;;;;;;;;;;38.40;54.80;;;;;;5086579;28;19919;-66
2023/09/25 05:43:00;;;;;;;;;;;38.00;56.30;;;;;;5079147;28;19920;-67
2023/09/25 05:45:27;;;;;;;;;;;38.30;55.40;;;;;;5092554;28;19916;-66
2023/09/25 05:47:53;;;;;;;;;;;38.90;56.00;;;;;;5080371;28;20392;-68
2023/09/25 05:50:20;;;;;;;;;;;38.10;55.30;;;;;;5100628;28;19912;-66
2023/09/25 05:52:47;;;;;;;;;;;37.80;55.40;;;;;;5092566;28;19919;-67
2023/09/25 05:55:14;;;;;;;;;;;36.90;56.90;;;;;;5090806;28;19912;-69
2023/09/25 05:57:41;;;;;;;;;;;37.50;56.90;;;;;;5090611;28;19999;-67
2023/09/25 06:00:11;;;;;;;;;;;37.60;55.30;;;;;;5093171;28;19916;-67
2023/09/25 06:02:41;;;;;;;;;;;37.40;56.60;;;;;;5089786;28;19920;-66
2023/09/25 06:05:07;;;;;;;;;;;38.10;56.10;;;;;;5096086;28;19916;-67
2023/09/25 06:07:35;;;;;;;;;;;37.90;55.00;;;;;;5090903;28;19908;-66
2023/09/25 06:10:04;;;;;;;;;;;37.60;56.60;;;;;;5091922;28;19918;-66
2023/09/25 06:12:30;;;;;;;;;;;37.50;56.60;;;;;;5081959;28;19947;-67
2023/09/25 06:14:57;;;;;;;;;;;36.80;56.70;;;;;;5087838;28;20289;-70
2023/09/25 06:17:26;;;;;;;;;;;36.50;57.30;;;;;;5093101;28;19912;-65
2023/09/25 06:19:53;;;;;;;;;;;35.80;58.00;;;;;;5093084;28;19912;-65
2023/09/25 06:22:23;;;;;;;;;;;34.60;59.90;;;;;;5093071;28;19915;-66
2023/09/25 06:24:50;;;;;;;;;;;34.00;59.70;;;;;;5093008;28;19957;-65
2023/09/25 06:27:17;;;;;;;;;;;33.60;60.50;;;;;;5082201;28;19923;-66
2023/09/25 06:29:43;;;;;;;;;;;32.90;61.90;;;;;;5085008;28;19912;-67
2023/09/25 06:32:10;;;;;;;;;;;32.40;62.60;;;;;;5075435;28;19916;-68
2023/09/25 06:34:38;;;;;;;;;;;31.70;63.40;;;;;;5083494;28;20393;-65
2023/09/25 06:37:05;;;;;;;;;;;31.20;63.80;;;;;;5087369;28;20056;-67
2023/09/25 06:39:33;;;;;;;;;;;30.30;65.90;;;;;;5092636;28;20285;-68
2023/09/25 06:42:00;;;;;;;;;;;29.50;66.90;;;;;;5091499;28;19916;-68
2023/09/25 06:44:26;;;;;;;;;;;29.00;67.70;;;;;;5091510;28;19920;-69
2023/09/25 06:46:53;;;;;;;;;;;28.50;68.50;;;;;;5089660;28;19918;-67
2023/09/25 06:49:20;;;;;;;;;;;27.80;70.00;;;;;;5092172;28;20023;-67
2023/09/25 06:51:47;;;;;;;;;;;27.10;71.60;;;;;;5089818;28;20340;-67
2023/09/25 06:54:14;;;;;;;;;;;26.60;72.70;;;;;;5103466;28;20003;-67
2023/09/25 06:56:40;;;;;;;;;;;25.90;74.00;;;;;;5086264;28;19916;-66
2023/09/25 06:59:07;;;;;;;;;;;25.40;75.60;;;;;;5080891;28;19928;-66
2023/09/25 07:01:35;;;;;;;;;;;24.80;76.90;;;;;;5080957;28;19919;-67
2023/09/25 07:04:01;;;;;;;;;;;24.30;78.50;;;;;;5089470;28;19923;-67
2023/09/25 07:06:29;;;;;;;;;;;24.10;79.40;;;;;;5081416;28;19982;-68
2023/09/25 07:08:57;;;;;;;;;;;23.70;80.20;;;;;;5107922;28;19959;-67
2023/09/25 07:11:23;;;;;;;;;;;23.60;81.40;;;;;;5087031;28;19947;-66
2023/09/25 07:13:50;;;;;;;;;;;23.60;81.60;;;;;;5085206;28;19952;-66
2023/09/25 07:16:16;;;;;;;;;;;23.60;81.50;;;;;;5088358;28;19920;-66
2023/09/25 07:18:47;;;;;;;;;;;23.50;82.60;;;;;;5087860;28;19959;-69
2023/09/25 07:21:15;;;;;;;;;;;23.30;82.90;;;;;;5090338;28;19912;-65
2023/09/25 07:23:42;;;;;;;;;;;23.20;82.90;;;;;;5090599;28;19927;-67
2023/09/25 07:26:09;;;;;;;;;;;23.00;83.40;;;;;;5088586;28;19927;-67
2023/09/25 07:28:36;;;;;;;;;;;22.70;85.10;;;;;;5089246;28;19935;-66
2023/09/25 07:31:04;;;;;;;;;;;22.40;86.30;;;;;;5096219;28;19912;-65
2023/09/25 07:33:31;;;;;;;;;;;22.30;87.80;;;;;;5090297;28;20444;-66
2023/09/25 07:35:58;;;;;;;;;;;22.10;89.00;;;;;;5088785;28;20261;-68
2023/09/25 07:38:25;;;;;;;;;;;22.00;90.10;;;;;;5076946;28;19913;-66
2023/09/25 07:40:52;;;;;;;;;;;22.00;90.20;;;;;;5085991;28;19955;-66
2023/09/25 07:43:23;;;;;;;;;;;21.90;90.50;;;;;;5086235;28;19927;-66
2023/09/25 07:45:52;;;;;;;;;;;21.80;90.50;;;;;;5085946;28;19935;-67
2023/09/25 07:48:19;;;;;;;;;;;21.70;91.00;;;;;;5089863;28;20377;-66
2023/09/25 07:50:46;;;;;;;;;;;21.50;91.40;;;;;;5080085;28;19919;-65
2023/09/25 07:53:13;;;;;;;;;;;21.50;91.60;;;;;;5074189;28;19931;-67
2023/09/25 07:55:41;;;;;;;;;;;21.50;91.80;;;;;;5087354;28;19995;-68
2023/09/25 07:58:08;;;;;;;;;;;21.40;91.80;;;;;;5088257;28;20003;-72
2023/09/25 08:00:39;;;;;;;;;;;21.50;91.70;;;;;;5076979;28;19916;-66
2023/09/25 08:03:06;;;;;;;;;;;21.40;91.90;;;;;;5088522;28;20325;-69
2023/09/25 08:05:34;;;;;;;;;;;21.40;92.10;;;;;;5086022;28;19947;-70
2023/09/25 08:08:01;;;;;;;;;;;21.30;92.20;;;;;;5091053;28;19948;-72
2023/09/25 08:10:28;;;;;;;;;;;21.30;92.60;;;;;;5090520;28;19916;-76
2023/09/25 08:12:54;;;;;;;;;;;21.30;92.80;;;;;;5090397;28;19915;-70
2023/09/25 08:15:23;;;;;;;;;;;21.30;93.00;;;;;;5090781;28;19911;-72
2023/09/25 08:17:49;;;;;;;;;;;21.20;93.30;;;;;;5090717;28;20327;-68
2023/09/25 08:20:22;;;;;;;;;;;21.20;93.90;;;;;;5090534;28;19943;-69
2023/09/25 08:22:49;;;;;;;;;;;21.20;94.20;;;;;;5090588;28;19920;-72
2023/09/25 08:25:17;;;;;;;;;;;21.10;94.80;;;;;;5090477;28;19912;-69
2023/09/25 08:27:44;;;;;;;;;;;21.10;94.60;;;;;;5090642;28;19912;-69
2023/09/25 08:30:11;;;;;;;;;;;21.10;95.20;;;;;;5090523;28;19912;-68
2023/09/25 08:32:38;;;;;;;;;;;21.00;95.40;;;;;;5090695;28;19916;-72
2023/09/25 08:35:05;;;;;;;;;;;21.00;95.70;;;;;;5091166;28;19916;-73
2023/09/25 08:37:31;;;;;;;;;;;20.90;95.90;;;;;;5091487;28;19951;-68
2023/09/25 08:39:58;;;;;;;;;;;20.80;96.30;;;;;;5092415;28;19908;-72
2023/09/25 08:42:25;;;;;;;;;;;20.90;96.70;;;;;;5092438;28;19915;-71
2023/09/25 08:44:53;;;;;;;;;;;20.80;96.90;;;;;;5092530;28;20280;-71
2023/09/25 08:47:20;;;;;;;;;;;20.70;97.30;;;;;;5091099;28;19908;-72
2023/09/25 08:49:50;;;;;;;;;;;20.70;97.90;;;;;;5092690;28;19954;-70
2023/09/25 08:52:17;;;;;;;;;;;20.60;98.30;;;;;;5092613;28;19908;-72
2023/09/25 08:54:44;;;;;;;;;;;20.60;99.00;;;;;;5092243;28;20368;-69
2023/09/25 08:57:13;;;;;;;;;;;20.50;99.30;;;;;;5092120;28;19915;-69
2023/09/25 08:59:40;;;;;;;;;;;20.40;99.90;;;;;;5092072;28;19915;-69
2023/09/25 09:02:08;;;;;;;;;;;20.30;99.90;;;;;;5095408;28;19916;-73
2023/09/25 09:04:38;;;;;;;;;;;20.40;99.90;;;;;;5095918;28;19916;-72
2023/09/25 09:07:05;;;;;;;;;;;20.30;99.90;;;;;;5095942;28;19915;-70
2023/09/25 09:09:32;;;;;;;;;;;20.30;99.90;;;;;;5095852;28;19992;-71
2023/09/25 09:11:59;;;;;;;;;;;20.30;99.90;;;;;;5095905;28;19908;-73
2023/09/25 09:14:35;;;;;;;;;;;20.20;99.90;;;;;;5095962;28;19951;-69
2023/09/25 09:17:06;;;;;;;;;;;20.20;99.90;;;;;;5095813;28;19915;-72
2023/09/25 09:19:44;;;;;;;;;;;20.20;99.90;;;;;;5095596;28;19915;-72
2023/09/25 09:22:13;;;;;;;;;;;20.20;99.90;;;;;;5095857;28;20357;-71
2023/09/25 09:24:41;;;;;;;;;;;20.10;99.90;;;;;;5095564;28;19920;-70
2023/09/25 09:27:08;;;;;;;;;;;20.00;99.90;;;;;;5095894;28;19912;-72
2023/09/25 09:29:36;;;;;;;;;;;19.90;99.90;;;;;;5095573;28;19915;-72
2023/09/25 09:32:03;;;;;;;;;;;19.90;99.90;;;;;;5095474;28;19908;-72
2023/09/25 09:34:30;;;;;;;;;;;19.90;99.90;;;;;;5095315;28;20357;-73
2023/09/25 09:36:56;;;;;;;;;;;19.90;99.90;;;;;;5095521;28;19949;-72
2023/09/25 09:39:26;;;;;;;;;;;19.80;99.90;;;;;;5095449;28;19961;-72
2023/09/25 09:41:55;;;;;;;;;;;19.80;99.90;;;;;;5095632;28;19915;-73
2023/09/25 09:44:22;;;;;;;;;;;19.80;99.90;;;;;;5095178;28;19916;-71
2023/09/25 09:46:52;;;;;;;;;;;19.80;99.90;;;;;;5095286;28;19957;-69
2023/09/25 09:49:22;;;;;;;;;;;19.80;99.90;;;;;;5095080;28;20368;-71
2023/09/25 09:51:52;;;;;;;;;;;19.80;99.90;;;;;;5095289;28;19947;-66
2023/09/25 09:54:20;;;;;;;;;;;19.70;99.90;;;;;;5095116;28;19954;-67
2023/09/25 09:56:50;;;;;;;;;;;19.60;99.90;;;;;;5095060;28;19952;-69
2023/09/25 09:59:17;;;;;;;;;;;19.60;99.90;;;;;;5094803;28;20319;-72
2023/09/25 10:01:50;;;;;;;;;;;19.60;99.90;;;;;;5094579;28;19961;-66
2023/09/25 10:04:17;;;;;;;;;;;19.60;99.90;;;;;;5093600;28;19946;-72
2023/09/25 10:06:53;;;;;;;;;;;19.60;99.90;;;;;;5094774;28;19908;-72
2023/09/25 10:09:20;;;;;;;;;;;19.50;99.90;;;;;;5094800;28;20272;-73
2023/09/25 10:11:48;;;;;;;;;;;19.50;99.90;;;;;;5094279;28;19919;-72
2023/09/25 10:14:22;;;;;;;;;;;19.50;99.90;;;;;;5094594;28;19912;-67
2023/09/25 10:17:14;;;;;;;;;;;19.50;99.90;;;;;;5094610;28;20345;-68
2023/09/25 10:19:41;;;;;;;;;;;19.50;99.90;;;;;;5093418;28;19908;-72
2023/09/25 10:22:11;;;;;;;;;;;19.50;99.90;;;;;;5093133;28;19908;-75
2023/09/25 10:24:38;;;;;;;;;;;19.50;99.90;;;;;;5094514;28;20372;-68
2023/09/25 10:27:05;;;;;;;;;;;19.40;99.90;;;;;;5094605;28;19912;-69
2023/09/25 10:29:32;;;;;;;;;;;19.40;99.90;;;;;;5094426;28;19916;-71
2023/09/25 10:31:58;;;;;;;;;;;19.40;99.90;;;;;;5094345;28;19908;-68
2023/09/25 10:34:29;;;;;;;;;;;19.40;99.90;;;;;;5094425;28;19908;-70
2023/09/25 10:36:59;;;;;;;;;;;19.40;99.90;;;;;;5094454;28;19908;-71
2023/09/25 10:39:30;;;;;;;;;;;19.30;99.90;;;;;;5094335;28;19908;-66
2023/09/25 10:42:01;;;;;;;;;;;19.20;99.90;;;;;;5089767;28;19919;-68
2023/09/25 10:44:28;;;;;;;;;;;19.20;99.90;;;;;;5082965;28;19924;-70
2023/09/25 10:46:55;;;;;;;;;;;19.30;99.90;;;;;;5077181;28;19916;-69
2023/09/25 10:49:23;;;;;;;;;;;19.20;99.90;;;;;;5076131;28;20456;-66
2023/09/25 10:51:50;;;;;;;;;;;19.20;99.90;;;;;;5086044;28;20369;-67
2023/09/25 10:54:16;;;;;;;;;;;19.10;99.90;;;;;;5090176;28;19915;-70
2023/09/25 10:56:43;;;;;;;;;;;19.10;99.90;;;;;;5088159;28;19920;-70
2023/09/25 10:59:10;;;;;;;;;;;19.10;99.90;;;;;;5111654;28;19908;-74
2023/09/25 11:01:37;;;;;;;;;;;19.00;99.90;;;;;;5110330;28;19951;-72
2023/09/25 11:04:04;;;;;;;;;;;19.00;99.90;;;;;;5091970;28;19962;-73
2023/09/25 11:06:31;;;;;;;;;;;18.90;99.90;;;;;;5093151;28;19920;-67
2023/09/25 11:08:58;;;;;;;;;;;18.90;99.90;;;;;;5088756;28;19923;-69
2023/09/25 11:11:25;;;;;;;;;;;18.90;99.90;;;;;;5092721;28;19930;-72
2023/09/25 11:13:53;;;;;;;;;;;18.80;99.90;;;;;;5091218;28;20374;-68
2023/09/25 11:16:20;;;;;;;;;;;18.80;99.90;;;;;;5091123;28;20018;-71
2023/09/25 11:18:49;;;;;;;;;;;18.70;99.90;;;;;;5089175;28;19913;-71
2023/09/25 11:21:16;;;;;;;;;;;18.70;99.90;;;;;;5088949;28;19916;-72
2023/09/25 11:23:44;;;;;;;;;;;18.70;99.90;;;;;;5090301;28;20284;-70
2023/09/25 11:26:11;;;;;;;;;;;18.60;99.90;;;;;;5091157;28;20373;-70
2023/09/25 11:28:38;;;;;;;;;;;18.60;99.90;;;;;;5092929;28;19916;-70
2023/09/25 11:31:04;;;;;;;;;;;18.50;99.90;;;;;;5092378;28;19908;-69
2023/09/25 11:33:31;;;;;;;;;;;18.40;99.90;;;;;;5091467;28;19995;-68
2023/09/25 11:35:58;;;;;;;;;;;18.20;99.90;;;;;;5092173;28;20346;-67
2023/09/25 11:38:27;;;;;;;;;;;18.20;99.90;;;;;;5091025;28;19989;-71
2023/09/25 11:40:54;;;;;;;;;;;18.10;99.90;;;;;;5090363;28;19965;-66
2023/09/25 11:43:23;;;;;;;;;;;18.10;99.90;;;;;;5092666;28;19916;-67
2023/09/25 11:45:50;;;;;;;;;;;18.10;99.90;;;;;;5087870;28;19916;-69
2023/09/25 11:48:18;;;;;;;;;;;18.10;99.90;;;;;;5091693;28;19979;-70
2023/09/25 11:50:46;;;;;;;;;;;18.10;99.90;;;;;;5087658;28;19918;-71
2023/09/25 11:53:12;;;;;;;;;;;18.10;99.90;;;;;;5088488;28;19918;-69
2023/09/25 11:55:39;;;;;;;;;;;18.10;99.90;;;;;;5091820;28;20364;-72
2023/09/25 11:58:08;;;;;;;;;;;18.10;99.90;;;;;;5091400;28;19991;-71
2023/09/25 12:00:35;;;;;;;;;;;18.10;99.90;;;;;;5085775;28;19934;-75
2023/09/25 12:03:07;;;;;;;;;;;18.10;99.90;;;;;;5091674;28;19922;-72
2023/09/25 12:05:35;;;;;;;;;;;18.10;99.90;;;;;;5086371;28;19912;-68
2023/09/25 12:08:03;;;;;;;;;;;18.10;99.90;;;;;;5085379;28;19912;-66
2023/09/25 12:10:40;;;;;;;;;;;18.00;99.90;;;;;;5087680;28;19916;-72
2023/09/25 12:13:07;;;;;;;;;;;17.90;99.90;;;;;;5088236;28;19920;-71
2023/09/25 12:15:33;;;;;;;;;;;17.90;99.90;;;;;;5089200;28;19919;-71
2023/09/25 12:18:00;;;;;;;;;;;17.80;99.90;;;;;;5091771;28;19916;-73
2023/09/25 12:20:28;;;;;;;;;;;17.90;99.90;;;;;;5088641;28;19964;-67
2023/09/25 12:22:56;;;;;;;;;;;17.80;99.90;;;;;;5088565;28;19935;-69
2023/09/25 12:25:24;;;;;;;;;;;17.90;99.90;;;;;;5088634;28;20281;-71
2023/09/25 12:27:52;;;;;;;;;;;17.80;99.90;;;;;;5091268;28;19912;-72
2023/09/25 12:30:19;;;;;;;;;;;17.80;99.90;;;;;;5089454;28;20392;-70
2023/09/25 12:32:47;;;;;;;;;;;17.80;99.90;;;;;;5091526;28;20276;-67
2023/09/25 12:35:16;;;;;;;;;;;17.80;99.90;;;;;;5090735;28;20002;-66
2023/09/25 12:37:44;;;;;;;;;;;17.70;99.90;;;;;;5092038;28;20378;-72
2023/09/25 12:40:11;;;;;;;;;;;17.60;99.90;;;;;;5092026;28;19912;-72
2023/09/25 12:42:38;;;;;;;;;;;17.70;99.90;;;;;;5095594;28;19964;-68
2023/09/25 12:45:06;;;;;;;;;;;17.60;99.90;;;;;;5092103;28;19923;-69
2023/09/25 12:47:33;;;;;;;;;;;17.50;99.90;;;;;;5094177;28;19916;-69
2023/09/25 12:50:00;;;;;;;;;;;17.50;99.90;;;;;;5092884;28;20070;-72
2023/09/25 12:52:27;;;;;;;;;;;17.50;99.90;;;;;;5095465;28;19915;-67
2023/09/25 12:54:54;;;;;;;;;;;17.50;99.90;;;;;;5093485;28;19942;-70
2023/09/25 12:57:22;;;;;;;;;;;17.50;99.90;;;;;;5095221;28;19919;-66
2023/09/25 12:59:48;;;;;;;;;;;17.40;99.90;;;;;;5094195;28;19959;-64
2023/09/25 13:02:15;;;;;;;;;;;17.40;99.90;;;;;;5095061;28;19939;-67
2023/09/25 13:04:42;;;;;;;;;;;17.30;99.90;;;;;;5094799;28;20018;-67
2023/09/25 13:07:08;;;;;;;;;;;17.40;99.90;;;;;;5096181;28;19912;-69
2023/09/25 13:09:35;;;;;;;;;;;17.30;99.90;;;;;;5094461;28;19908;-68
2023/09/25 13:12:02;;;;;;;;;;;17.20;99.90;;;;;;5095294;28;19912;-67
2023/09/25 13:14:28;;;;;;;;;;;17.20;99.90;;;;;;5094894;28;19914;-67
2023/09/25 13:16:55;;;;;;;;;;;17.20;99.90;;;;;;5095394;28;19916;-65
2023/09/25 13:19:22;;;;;;;;;;;17.20;99.90;;;;;;5093064;28;20345;-70
2023/09/25 13:21:49;;;;;;;;;;;17.10;99.90;;;;;;5075065;28;19952;-68
2023/09/25 13:24:16;;;;;;;;;;;17.10;99.90;;;;;;5081505;28;20433;-75
2023/09/25 13:26:43;;;;;;;;;;;17.10;99.90;;;;;;5095414;28;19916;-74
2023/09/25 13:29:09;;;;;;;;;;;17.10;99.90;;;;;;5095559;28;19919;-71
2023/09/25 13:31:37;;;;;;;;;;;17.00;99.90;;;;;;5095683;28;19915;-69
2023/09/25 13:34:04;;;;;;;;;;;17.10;99.90;;;;;;5090890;28;19915;-69
2023/09/25 13:36:32;;;;;;;;;;;17.00;99.90;;;;;;5075149;28;19914;-67
2023/09/25 13:38:58;;;;;;;;;;;17.00;99.90;;;;;;5074888;28;19994;-74
2023/09/25 13:41:25;;;;;;;;;;;17.00;99.90;;;;;;5075857;28;19955;-68
2023/09/25 13:43:51;;;;;;;;;;;16.90;99.90;;;;;;5094284;28;19939;-68
2023/09/25 13:46:18;;;;;;;;;;;16.90;99.90;;;;;;5094028;28;19912;-70
2023/09/25 13:48:45;;;;;;;;;;;16.80;99.90;;;;;;5094944;28;20373;-72
2023/09/25 13:51:11;;;;;;;;;;;16.90;99.90;;;;;;5094897;28;19908;-65
2023/09/25 13:53:38;;;;;;;;;;;16.70;99.90;;;;;;5077306;28;19931;-70
2023/09/25 13:56:05;;;;;;;;;;;16.80;99.90;;;;;;5094504;28;19966;-70
2023/09/25 13:58:32;;;;;;;;;;;16.80;99.90;;;;;;5094819;28;19908;-71
2023/09/25 14:01:05;;;;;;;;;;;16.80;99.90;;;;;;5094881;28;19912;-68
2023/09/25 14:03:32;;;;;;;;;;;16.80;99.90;;;;;;5092618;28;19923;-71
2023/09/25 14:06:05;;;;;;;;;;;16.70;99.90;;;;;;5094693;28;19912;-68
2023/09/25 14:08:31;;;;;;;;;;;16.70;99.90;;;;;;5094777;28;20294;-70
2023/09/25 14:11:01;;;;;;;;;;;16.60;99.90;;;;;;5092876;28;19912;-71
2023/09/25 14:13:28;;;;;;;;;;;16.70;99.90;;;;;;5088826;28;20370;-71
2023/09/25 14:15:54;;;;;;;;;;;16.60;99.90;;;;;;5074108;28;20383;-68
2023/09/25 14:18:21;;;;;;;;;;;16.60;99.90;;;;;;5074400;28;19909;-72